Nashville, Tennessee
Traffic Map
Current Weather Conditions
Nashville, Tennessee
Broken Clouds
Broken Clouds
20°
Feels Like: 20°
Wind Chill: 20° Ceiling: 25000
Heat Index: 20° Visibility: 10mi
Dew Point: 14° Wind: 0mph
Humidity: 68% Direction: ° ()
Pressure: 30in Gusts: 0mph
Raw Report DataKBNA 011353Z 00000KT 10SM FEW050 SCT120 SCT200 BKN250 20/14 A3000 RMK AO2 SLP153 T02000139
Traffic Incident Summary
Active as of:
Severity:
Category:
InformationThere was an issue retrieving the traffic information for this location. Please try a different location or try again shortly.
Advertisements
Track Severe Weather on mobile